Pagrindinis puslapis
METAR-TAF:

METAR-TAF

Oro uostai :

Santa Marija, Pietų Rio Grandė, Brazilija

platuma: 29-43S, ilguma: 053-42W, Aukštis: 85 m

Dabartinis oras

Ataskaita buvo paskelbta 1 valandą ir 21 minutes, ne 21:00 UTC
Vėjas 1 kt nuo kintamojo kryptimis
Temperatūra 19°C
Drėgmė 83%
Slėgis 1014 hPa
Matomumas 10 km arba daugiau
nėra debesų žemiau 1500 m ir nėra kamuolinių lietaus debesų

METAR: SBSM 302100Z VRB01KT CAVOK 19/16 Q1014

Laikas: 19:21 (22:21 UTC)

Prognozė

Ataskaita buvo paskelbta 7 valandos ir 21 minutes, ne 15:00 UTC
Prognozė galioja nuo 30 metu 18 UTC su 31 metu 06 UTC
Vėjas 5 kt iš Rytų
Matomumas 10 km arba daugiau
nėra debesų žemiau 1500 m ir nėra kamuolinių lietaus debesų

TAF: SBSM 301500Z 3018/3106 09005KT CAVOK TX23/3018Z TN11/3106Z RMK PDG

Orai ataskaitas ir orų prognozės (METAR, TAF).

turimą stotys yra geltonos ir raudonos taškus žemėlapyje.

Perkelti pele per norėdami pamatyti stoties vardą.

Tada spustelėkite, norėdami matyti oro stebėjimo ir prognozės.

Norėdami pakeisti žemėlapį: spustelėkite ant žalios mygtukų su juodo kryžiaus žemyn,; žalią mygtuką su brūkšneliu, jei norite nutolinti; arba žalių rodyklių gretimoms žemėlapius.


METAR-TAF: